Time;durP1;ratioP1;P1;durP2;ratioP2;P2;SDS_P1;SDS_P2;PMS_P1;PMS_P2;Temp;Humidity;BMP_temperature;BMP_pressure;BME280_temperature;BME280_humidity;BME280_pressure;Samples;Min_cycle;Max_cycle;Signal;HPM_P1;HPM_P2
2022/12/26 00:01:21;;;;;;;12.77;5.70;;;;;;;-141.97;73.07;47742.03;5032216;28;20660;-82
2022/12/26 00:03:47;;;;;;;12.57;5.73;;;;;;;-141.97;72.95;47807.41;5032351;28;20177;-83
2022/12/26 00:06:21;;;;;;;16.17;7.13;;;;;;;-141.97;72.79;47761.25;5014740;28;20177;-81
2022/12/26 00:08:47;;;;;;;14.07;6.33;;;;;;;-141.97;72.74;47861.22;5039068;28;20176;-82
2022/12/26 00:11:13;;;;;;;12.53;6.27;;;;;;;-141.97;72.87;47824.69;5043121;28;20412;-81
2022/12/26 00:13:39;;;;;;;12.60;6.43;;;;;;;-141.97;73.39;47797.78;5038665;28;20304;-82
2022/12/26 00:16:14;;;;;;;13.83;6.83;;;;;;;-141.97;73.34;47803.56;5038463;28;20467;-82
2022/12/26 00:18:40;;;;;;;11.83;6.73;;;;;;;-141.97;73.94;47815.09;5016413;28;20440;-82
2022/12/26 00:21:07;;;;;;;13.90;6.87;;;;;;;-141.97;74.81;47803.56;5034292;28;20864;-82
2022/12/26 00:23:34;;;;;;;13.77;6.57;;;;;;;-141.97;74.60;47824.69;5033543;28;20207;-82
2022/12/26 00:26:14;;;;;;;15.03;7.10;;;;;;;-141.97;74.84;47772.78;5033517;28;20397;-81
2022/12/26 00:28:41;;;;;;;13.63;6.40;;;;;;;-141.97;74.81;47842.00;5040551;28;20255;-82
2022/12/26 00:31:10;;;;;;;18.80;7.30;;;;;;;-141.97;75.26;47805.47;5041041;28;20408;-82
2022/12/26 00:33:35;;;;;;;18.37;9.37;;;;;;;-141.97;75.15;47861.22;5039579;28;20490;-81
2022/12/26 00:36:04;;;;;;;18.80;8.63;;;;;;;-141.97;76.01;47793.94;5036430;28;20413;-81
2022/12/26 00:38:29;;;;;;;23.90;11.70;;;;;;;-141.97;75.70;47782.41;5033022;28;20702;-81
2022/12/26 00:40:55;;;;;;;16.97;8.80;;;;;;;-141.97;75.96;47792.03;5032445;28;20432;-82
2022/12/26 00:43:20;;;;;;;25.47;12.77;;;;;;;-141.97;76.57;47818.94;5032740;28;20185;-81
2022/12/26 00:45:47;;;;;;;24.73;10.60;;;;;;;-141.97;76.36;47830.47;5032218;28;20162;-82
2022/12/26 00:48:13;;;;;;;19.53;9.33;;;;;;;-141.97;76.93;47793.94;5032163;28;20562;-81
2022/12/26 00:50:38;;;;;;;16.87;8.50;;;;;;;-141.97;76.83;47778.56;5014191;28;20405;-81
2022/12/26 00:53:04;;;;;;;19.93;9.63;;;;;;;-141.97;77.16;47815.09;5032323;28;20166;-81
2022/12/26 00:55:29;;;;;;;19.67;10.30;;;;;;;-141.97;77.75;47776.63;5034639;28;20170;-79
2022/12/26 00:57:54;;;;;;;19.97;9.37;;;;;;;-141.97;77.93;47788.19;5048884;28;20619;-81
2022/12/26 01:00:20;;;;;;;20.77;10.50;;;;;;;-141.97;78.65;47815.09;5034687;28;20173;-81
2022/12/26 01:02:45;;;;;;;24.93;9.70;;;;;;;-141.97;79.11;47799.72;5032857;28;20281;-82
2022/12/26 01:05:11;;;;;;;22.87;11.10;;;;;;;-141.97;78.70;47843.91;5032268;28;20163;-82
2022/12/26 01:07:39;;;;;;;19.80;9.73;;;;;;;-141.97;79.45;47811.25;5032155;28;20158;-82
2022/12/26 01:10:07;;;;;;;22.37;11.40;;;;;;;-141.97;79.68;47795.88;5031874;28;20166;-81
2022/12/26 01:12:32;;;;;;;22.97;12.33;;;;;;;-141.97;79.75;47805.47;5013851;28;20428;-83
2022/12/26 01:14:58;;;;;;;24.10;12.60;;;;;;;-141.97;79.61;47772.78;5031480;28;20866;-80
2022/12/26 01:17:26;;;;;;;25.03;11.83;;;;;;;-141.97;80.07;47830.47;5031387;28;20623;-81
2022/12/26 01:19:51;;;;;;;25.27;11.27;;;;;;;-141.97;80.23;47793.94;5031587;28;20682;-82
2022/12/26 01:22:17;;;;;;;26.53;12.17;;;;;;;-141.97;80.65;47880.44;5030930;28;20496;-82
2022/12/26 01:24:42;;;;;;;24.97;11.60;;;;;;;-141.97;81.48;47822.78;5029937;28;20271;-82
2022/12/26 01:27:07;;;;;;;24.40;11.33;;;;;;;-141.97;81.42;47792.03;5031436;28;20201;-81
2022/12/26 01:29:33;;;;;;;24.10;11.73;;;;;;;-141.97;80.90;47863.13;5031055;28;20216;-81
2022/12/26 01:31:59;;;;;;;37.23;16.30;;;;;;;-141.97;80.83;47807.41;5031024;28;20252;-80
2022/12/26 01:34:24;;;;;;;34.10;14.87;;;;;;;-141.97;80.69;47840.06;5031065;28;20181;-81
2022/12/26 01:36:51;;;;;;;30.27;14.07;;;;;;;-141.97;80.83;47793.94;5030708;28;20188;-82
2022/12/26 01:39:16;;;;;;;29.93;13.80;;;;;;;-141.97;81.44;47749.72;5031071;28;20166;-82
2022/12/26 01:41:42;;;;;;;30.03;12.90;;;;;;;-141.97;83.08;47807.41;5031294;28;20517;-81
2022/12/26 01:44:44;;;;;;;32.37;15.73;;;;;;;-141.97;83.04;47793.94;5030956;28;20170;-83
2022/12/26 01:47:11;;;;;;;56.93;24.93;;;;;;;-141.97;82.81;47795.88;5031356;28;20169;-82
2022/12/26 01:49:41;;;;;;;51.50;22.47;;;;;;;-141.97;82.93;47776.63;5031828;28;20920;-83
2022/12/26 01:52:11;;;;;;;52.23;23.47;;;;;;;-141.97;83.03;47770.88;5034115;28;20409;-81
2022/12/26 01:54:39;;;;;;;45.57;22.17;;;;;;;-141.97;82.99;47817.00;5032836;28;20503;-81
2022/12/26 01:57:11;;;;;;;46.67;23.00;;;;;;;-141.97;82.75;47788.19;5032090;28;20462;-83
2022/12/26 01:59:39;;;;;;;53.63;23.17;;;;;;;-141.97;82.87;47801.63;5030814;28;20908;-81
2022/12/26 02:02:05;;;;;;;48.60;22.37;;;;;;;-141.97;83.01;47780.47;5030973;28;20444;-81
2022/12/26 02:07:22;;;;;;;47.07;23.00;;;;;;;-141.97;82.75;47799.72;5030616;28;20176;-82
2022/12/26 02:09:48;;;;;;;40.17;19.17;;;;;;;-141.97;82.45;47772.78;5030543;28;20885;-82
2022/12/26 02:12:25;;;;;;;32.40;15.43;;;;;;;-141.97;83.77;47832.38;5014161;28;20417;-82
2022/12/26 02:14:51;;;;;;;29.47;13.50;;;;;;;-141.97;84.45;47807.41;5034481;28;20196;-81
2022/12/26 02:17:16;;;;;;;26.80;12.80;;;;;;;-141.97;84.81;47784.34;5034636;28;20407;-81
2022/12/26 02:20:13;;;;;;;28.13;13.03;;;;;;;-141.97;85.04;47780.47;5034369;28;20245;-81
2022/12/26 02:23:02;;;;;;;27.00;12.10;;;;;;;-141.97;85.94;47799.72;5049587;28;20664;-81
2022/12/26 02:25:40;;;;;;;21.07;10.30;;;;;;;-141.97;86.25;47818.94;5049827;28;20815;-82
2022/12/26 02:28:22;;;;;;;23.07;10.70;;;;;;;-141.97;86.60;47815.09;5034630;28;20396;-81
2022/12/26 02:30:50;;;;;;;27.83;13.20;;;;;;;-141.97;86.62;47838.16;5034717;28;20420;-82
2022/12/26 02:33:22;;;;;;;25.00;12.67;;;;;;;-141.97;86.37;47780.47;5036976;28;20396;-81
2022/12/26 02:35:59;;;;;;;27.63;13.97;;;;;;;-141.97;86.80;47784.34;5035040;28;20455;-83
2022/12/26 02:39:06;;;;;;;34.90;16.87;;;;;;;-141.97;86.33;47815.09;5034510;28;20481;-82
2022/12/26 02:41:37;;;;;;;37.33;18.93;;;;;;;-141.97;86.58;47824.69;4992812;28;20925;-82
2022/12/26 02:47:32;;;;;;;34.07;16.30;;;;;;;-141.97;86.70;47797.78;4992799;28;20856;-82
2022/12/26 03:13:38;;;;;;;27.50;12.87;;;;;;;-141.97;86.39;47807.41;4934577;29;20797;-82
2022/12/26 03:18:59;;;;;;;34.90;16.27;;;;;;;-141.97;86.95;47803.56;4915487;29;20417;-83
2022/12/26 03:21:30;;;;;;;63.53;32.07;;;;;;;-141.97;86.33;47803.56;4915419;29;20896;-82
2022/12/26 03:23:55;;;;;;;101.20;41.47;;;;;;;-141.97;85.89;47795.88;4914859;29;20533;-83
2022/12/26 03:26:40;;;;;;;60.70;27.60;;;;;;;-141.97;85.62;47803.56;4943696;29;20456;-82
2022/12/26 03:31:56;;;;;;;53.27;19.77;;;;;;;-141.97;84.92;47830.47;4974249;28;20411;-82
2022/12/26 03:34:22;;;;;;;94.73;29.27;;;;;;;-141.97;85.25;47813.16;4973292;28;20454;-82
2022/12/26 03:36:54;;;;;;;63.50;23.53;;;;;;;-141.97;85.14;47830.47;4972311;28;20434;-82
2022/12/26 04:20:39;;;;;;;30.63;13.63;;;;;;;-141.97;87.13;47807.41;5034621;28;20412;-82
2022/12/26 04:46:01;;;;;;;27.80;13.60;;;;;;;-141.97;88.06;47778.56;5029532;28;20778;-82
2022/12/26 04:51:11;;;;;;;32.67;14.50;;;;;;;-141.97;87.68;47788.19;5012180;28;20932;-82
2022/12/26 04:53:36;;;;;;;29.63;13.80;;;;;;;-141.97;87.53;47799.72;5013727;28;20460;-82
2022/12/26 04:56:01;;;;;;;31.50;14.57;;;;;;;-141.97;86.96;47780.47;5031566;28;20224;-81
2022/12/26 04:58:27;;;;;;;33.80;16.00;;;;;;;-141.97;87.34;47799.72;5030788;28;20251;-81
2022/12/26 05:09:32;;;;;;;33.13;15.53;;;;;;;-141.97;87.73;47801.63;5031494;28;20170;-82
2022/12/26 05:11:53;;;;;;;36.53;17.47;;;;;;;-141.97;87.70;47765.09;5031841;28;20854;-81
2022/12/26 05:14:19;;;;;;;48.17;24.17;;;;;;;-141.97;88.25;47784.34;5031613;28;20432;-82
2022/12/26 05:30:27;;;;;;;80.00;35.27;;;;;;;-141.97;87.85;47765.09;5030329;28;20399;-82
2022/12/26 05:35:37;;;;;;;43.70;19.83;;;;;;;-141.97;88.08;47797.78;5031725;28;20228;-82
2022/12/26 05:38:03;;;;;;;42.20;20.17;;;;;;;-141.97;88.21;47768.94;5030793;28;20991;-83
2022/12/26 05:40:28;;;;;;;37.57;16.67;;;;;;;-141.97;88.05;47793.94;5031595;28;20166;-81
2022/12/26 05:42:54;;;;;;;42.67;18.23;;;;;;;-141.97;87.81;47803.56;5031438;28;20205;-81
2022/12/26 05:45:19;;;;;;;76.40;32.80;;;;;;;-141.97;87.56;47803.56;5031618;28;20573;-81
2022/12/26 05:47:45;;;;;;;144.77;57.20;;;;;;;-141.97;86.22;47818.94;5035098;28;20166;-81
2022/12/26 05:50:10;;;;;;;77.30;32.97;;;;;;;-141.97;86.54;47857.38;5035079;28;20162;-84
2022/12/26 05:52:36;;;;;;;291.67;88.97;;;;;;;-141.97;87.38;47799.72;5034849;28;20241;-83
2022/12/26 05:55:01;;;;;;;379.67;128.33;;;;;;;-141.97;87.69;47807.41;5034784;28;20166;-81
2022/12/26 05:57:27;;;;;;;302.07;112.77;;;;;;;-141.97;88.57;47784.34;5035146;28;20162;-82
2022/12/26 05:59:52;;;;;;;234.17;85.43;;;;;;;-141.97;88.95;47807.41;5051229;28;20170;-80
2022/12/26 06:02:17;;;;;;;243.80;98.10;;;;;;;-141.97;89.33;47755.50;5038475;28;20193;-81
2022/12/26 06:04:43;;;;;;;181.70;77.33;;;;;;;-141.97;89.26;47811.25;5035845;28;20580;-82
2022/12/26 06:07:08;;;;;;;152.10;58.17;;;;;;;-141.97;89.49;47749.72;5018907;28;20181;-81
2022/12/26 06:09:34;;;;;;;125.90;49.70;;;;;;;-141.97;89.15;47788.19;5035411;28;20170;-81
2022/12/26 06:11:59;;;;;;;97.30;38.03;;;;;;;-141.97;89.73;47826.63;5034837;28;20562;-82
2022/12/26 06:14:25;;;;;;;70.40;29.10;;;;;;;-141.97;89.02;47807.41;5035698;28;20174;-82
2022/12/26 06:16:50;;;;;;;37.53;17.13;;;;;;;-141.97;88.48;47840.06;5000597;28;20186;-81
2022/12/26 06:19:15;;;;;;;42.13;18.90;;;;;;;-141.97;88.49;47822.78;5033840;28;20178;-83
2022/12/26 06:21:41;;;;;;;39.30;18.77;;;;;;;-141.97;88.59;47795.88;5036874;28;20772;-82
2022/12/26 06:24:07;;;;;;;39.23;17.67;;;;;;;-141.97;88.19;47767.03;5017365;28;20185;-82
2022/12/26 06:26:32;;;;;;;103.37;46.33;;;;;;;-141.97;88.70;47822.78;5034811;28;20178;-82
2022/12/26 06:28:58;;;;;;;91.97;38.80;;;;;;;-141.97;87.57;47784.34;5016125;28;20217;-82
2022/12/26 06:31:24;;;;;;;62.87;27.00;;;;;;;-141.97;85.40;47793.94;5016081;28;20166;-82
2022/12/26 06:33:54;;;;;;;58.97;26.37;;;;;;;-141.97;83.68;47792.03;5034622;28;20202;-82
2022/12/26 06:36:22;;;;;;;144.43;64.90;;;;;;;-141.97;81.46;47784.34;5034094;28;20463;-84
2022/12/26 06:38:48;;;;;;;93.53;46.03;;;;;;;-141.97;78.72;47817.00;5033946;28;20467;-83
2022/12/26 06:41:17;;;;;;;145.80;52.70;;;;;;;-141.97;77.93;47765.09;5033062;28;20420;-83
2022/12/26 06:43:43;;;;;;;245.77;71.17;;;;;;;-141.97;77.38;47861.22;5033898;28;20797;-84
2022/12/26 06:46:14;;;;;;;125.67;51.37;;;;;;;-141.97;78.02;47795.88;5034070;28;20516;-82
2022/12/26 06:48:40;;;;;;;80.43;38.53;;;;;;;-141.97;78.93;47792.03;5031460;28;20413;-82
2022/12/26 06:51:08;;;;;;;67.07;35.30;;;;;;;-141.97;78.59;47797.78;5033794;28;20495;-82
2022/12/26 06:53:34;;;;;;;71.17;36.97;;;;;;;-141.97;78.72;47742.03;5024354;28;20355;-82
2022/12/26 06:56:06;;;;;;;127.43;72.47;;;;;;;-141.97;79.49;47801.63;5033514;28;20942;-83
2022/12/26 06:58:32;;;;;;;121.70;58.60;;;;;;;-141.97;79.50;47761.25;5033839;28;20201;-82
2022/12/26 07:01:18;;;;;;;82.90;43.53;;;;;;;-141.97;68.50;47813.16;5033714;28;20413;-82
2022/12/26 07:03:44;;;;;;;117.43;56.50;;;;;;;-141.97;61.19;47818.94;5034097;28;20680;-83
2022/12/26 07:06:25;;;;;;;74.40;39.87;;;;;;;-141.97;56.62;47840.06;5034832;28;20500;-82
2022/12/26 07:08:52;;;;;;;100.07;51.77;;;;;;;-141.97;53.90;47826.63;5056331;28;20420;-82
2022/12/26 07:11:25;;;;;;;100.93;56.13;;;;;;;-141.97;52.86;47788.19;5016344;28;20174;-82
2022/12/26 07:13:52;;;;;;;78.43;39.93;;;;;;;-141.97;51.91;47822.78;5003042;28;20690;-86
2022/12/26 07:16:17;;;;;;;65.87;40.10;;;;;;;-141.97;52.53;47768.94;5036530;28;20959;-82
2022/12/26 07:18:42;;;;;;;78.60;43.90;;;;;;;-141.97;53.80;47790.09;5035218;28;20265;-83
2022/12/26 07:21:11;;;;;;;70.87;37.37;;;;;;;-141.97;52.19;47795.88;5034848;28;20182;-82
2022/12/26 07:23:37;;;;;;;53.40;28.60;;;;;;;-141.97;51.61;47736.28;5034910;28;20181;-82
2022/12/26 07:26:02;;;;;;;46.00;23.50;;;;;;;-141.97;50.61;47824.69;5016962;28;20177;-84
2022/12/26 07:28:28;;;;;;;41.13;25.53;;;;;;;-141.97;51.04;47770.88;4998390;28;20248;-81
2022/12/26 07:30:53;;;;;;;50.20;29.23;;;;;;;-141.97;51.62;47815.09;5028731;28;20185;-85
2022/12/26 07:33:19;;;;;;;35.00;19.67;;;;;;;-141.97;54.11;47786.25;5036210;28;20177;-84
2022/12/26 07:35:45;;;;;;;48.00;28.07;;;;;;;-141.97;58.39;47788.19;5038616;28;20180;-83
2022/12/26 07:38:11;;;;;;;33.57;19.97;;;;;;;-141.97;62.37;47865.06;5044890;28;20232;-82
2022/12/26 07:40:36;;;;;;;48.70;27.83;;;;;;;-141.97;63.65;47884.28;5027743;28;20174;-84
2022/12/26 07:43:02;;;;;;;63.37;33.87;;;;;;;-141.97;64.26;47870.81;5045022;28;20193;-83
2022/12/26 07:45:27;;;;;;;39.90;22.07;;;;;;;-141.97;65.08;47792.03;5044054;28;20320;-83
2022/12/26 07:47:54;;;;;;;34.20;19.63;;;;;;;-141.97;67.14;47801.63;5037391;28;20328;-84
2022/12/26 07:50:20;;;;;;;34.00;22.00;;;;;;;-141.97;68.59;47868.91;5039524;28;20690;-83
2022/12/26 07:52:46;;;;;;;43.07;24.70;;;;;;;-141.97;68.17;47751.66;5042992;28;20432;-83
2022/12/26 07:55:11;;;;;;;41.50;19.30;;;;;;;-141.97;67.66;47695.91;5029028;28;21037;-83
2022/12/26 07:57:36;;;;;;;36.80;18.83;;;;;;;-141.97;67.44;47805.47;5041990;28;20162;-83
2022/12/26 08:00:04;;;;;;;35.53;19.20;;;;;;;-141.97;66.88;47818.94;5039535;28;20582;-82
2022/12/26 08:02:29;;;;;;;55.27;31.90;;;;;;;-141.97;67.96;47742.03;5022197;28;20202;-83
2022/12/26 08:04:55;;;;;;;51.73;28.27;;;;;;;-141.97;67.32;47822.78;5030505;28;20455;-84
2022/12/26 08:07:20;;;;;;;35.37;17.87;;;;;;;-141.97;66.97;47788.19;5043868;28;20638;-83
2022/12/26 08:09:45;;;;;;;24.73;13.80;;;;;;;-141.97;68.55;47842.00;5052675;28;20189;-84
2022/12/26 08:12:12;;;;;;;36.70;18.73;;;;;;;-141.97;68.52;47699.75;5047737;28;20253;-82
2022/12/26 08:14:38;;;;;;;58.73;30.57;;;;;;;-141.97;68.38;47734.34;5050052;28;20189;-84
2022/12/26 08:17:03;;;;;;;181.70;50.60;;;;;;;-141.97;66.45;47849.69;5040306;28;20409;-83
2022/12/26 08:19:29;;;;;;;29.47;14.83;;;;;;;-141.97;64.95;47749.72;5036887;28;20654;-83
2022/12/26 08:21:54;;;;;;;36.77;20.23;;;;;;;-141.97;68.25;47845.84;5038480;28;20820;-83
2022/12/26 08:24:19;;;;;;;36.93;19.27;;;;;;;-141.97;68.49;47751.66;5035445;28;20213;-84
2022/12/26 08:26:45;;;;;;;37.27;21.00;;;;;;;-141.97;69.12;47782.41;5033737;28;20185;-81
2022/12/26 08:29:10;;;;;;;33.53;16.73;;;;;;;-141.97;67.44;47838.16;5024431;28;20253;-82
2022/12/26 08:31:36;;;;;;;27.30;13.27;;;;;;;-141.97;68.04;47811.25;5022649;28;20167;-84
2022/12/26 08:34:01;;;;;;;39.97;19.90;;;;;;;-141.97;65.93;47788.19;5020070;28;20281;-82
2022/12/26 08:36:27;;;;;;;53.60;24.73;;;;;;;-141.97;64.47;47909.28;5017433;28;20239;-84
2022/12/26 08:38:52;;;;;;;32.10;15.57;;;;;;;-141.97;64.77;47692.06;5017969;28;20729;-82
2022/12/26 08:41:18;;;;;;;52.93;25.43;;;;;;;-141.97;63.21;47795.88;5017635;28;20171;-84
2022/12/26 08:43:47;;;;;;;41.57;21.70;;;;;;;-141.97;62.57;47792.03;5016719;28;20185;-83
2022/12/26 08:46:13;;;;;;;26.40;13.33;;;;;;;-141.97;61.85;47767.03;5018596;28;20169;-83
2022/12/26 08:48:40;;;;;;;37.77;22.00;;;;;;;-141.97;60.86;47811.25;5015585;28;20261;-82
2022/12/26 08:51:08;;;;;;;25.13;14.17;;;;;;;-141.97;60.78;47803.56;5016844;28;20159;-82
2022/12/26 08:53:35;;;;;;;28.77;13.63;;;;;;;-141.97;61.20;47730.50;5016372;28;20158;-83
2022/12/26 08:56:03;;;;;;;24.33;12.80;;;;;;;-141.97;60.35;47799.72;5014463;28;20192;-84
2022/12/26 08:58:28;;;;;;;20.63;12.10;;;;;;;-141.97;59.29;47776.63;5032902;28;20177;-83
2022/12/26 09:00:54;;;;;;;30.83;15.43;;;;;;;-141.97;59.28;47734.34;5037345;28;20170;-85
2022/12/26 09:03:20;;;;;;;92.50;30.60;;;;;;;-141.97;58.69;47793.94;5038062;28;20244;-83
2022/12/26 09:05:46;;;;;;;61.33;22.43;;;;;;;-141.97;58.27;47742.03;5036690;28;20173;-82
2022/12/26 09:08:11;;;;;;;82.97;31.73;;;;;;;-141.97;57.58;47722.81;5035914;28;20177;-82
2022/12/26 09:10:37;;;;;;;26.70;15.20;;;;;;;-141.97;56.91;47817.00;5036657;28;20218;-84
2022/12/26 09:13:02;;;;;;;23.43;14.17;;;;;;;-141.97;56.73;47884.28;5034993;28;20627;-82
2022/12/26 09:15:28;;;;;;;109.37;40.67;;;;;;;-141.97;56.05;47828.53;5034110;28;20711;-83
2022/12/26 09:17:53;;;;;;;93.50;49.20;;;;;;;-141.97;55.67;47886.22;5034133;28;20166;-84
2022/12/26 09:20:19;;;;;;;24.80;14.80;;;;;;;-141.97;55.06;47720.91;5033477;28;20690;-84
2022/12/26 09:22:50;;;;;;;29.43;15.60;;;;;;;-141.97;54.87;47799.72;5033045;28;20721;-85
2022/12/26 09:25:16;;;;;;;24.63;14.63;;;;;;;-141.97;54.45;47749.72;5014348;28;20183;-84
2022/12/26 09:27:42;;;;;;;44.67;22.17;;;;;;;-141.97;54.01;47690.16;5013596;28;20601;-84
2022/12/26 09:30:08;;;;;;;20.63;12.30;;;;;;;-141.97;54.15;47747.81;5003980;28;20234;-83
2022/12/26 09:32:34;;;;;;;24.53;12.50;;;;;;;-141.97;53.87;47759.34;5012808;28;20170;-83
2022/12/26 09:35:00;;;;;;;21.23;11.33;;;;;;;-141.97;53.22;47805.47;5012960;28;20554;-83
2022/12/26 09:37:26;;;;;;;34.37;17.70;;;;;;;-141.97;52.60;47795.88;5013032;28;20221;-83
2022/12/26 09:39:51;;;;;;;32.00;17.57;;;;;;;-141.97;52.58;47795.88;5012963;28;20162;-83
2022/12/26 09:42:31;;;;;;;31.27;17.57;;;;;;;-141.97;51.75;47801.63;5013041;28;20246;-83
2022/12/26 09:45:06;;;;;;;44.30;22.67;;;;;;;-141.97;52.39;47749.72;5012986;28;20198;-83
2022/12/26 09:47:36;;;;;;;21.67;11.87;;;;;;;-141.97;50.89;47753.56;5011867;28;20188;-83
2022/12/26 09:50:09;;;;;;;17.67;9.60;;;;;;;-141.97;50.17;47665.16;5013871;28;20232;-82
2022/12/26 09:52:49;;;;;;;14.67;8.70;;;;;;;-141.97;50.32;47826.63;5012878;28;20159;-83
2022/12/26 09:55:39;;;;;;;21.43;12.83;;;;;;;-141.97;50.77;47747.81;5011976;28;20199;-82
2022/12/26 09:58:16;;;;;;;21.80;11.43;;;;;;;-141.97;50.67;47784.34;5016370;28;20686;-82
2022/12/26 10:00:55;;;;;;;58.30;34.67;;;;;;;-141.97;50.43;47745.88;5014500;28;20170;-82
2022/12/26 10:03:22;;;;;;;19.47;10.50;;;;;;;-141.97;50.40;47757.41;5014034;28;20186;-83
2022/12/26 10:06:18;;;;;;;17.23;9.17;;;;;;;-141.97;50.56;47749.72;5014084;28;20228;-82
2022/12/26 10:08:57;;;;;;;9.37;5.47;;;;;;;-141.97;50.36;47768.94;5013691;28;20549;-82
2022/12/26 10:12:00;;;;;;;13.40;7.83;;;;;;;-141.97;50.39;47768.94;5015313;28;20174;-82
2022/12/26 10:14:25;;;;;;;14.57;6.70;;;;;;;-141.97;50.58;47757.41;5025205;28;20238;-83
2022/12/26 10:16:57;;;;;;;14.03;7.17;;;;;;;-141.97;51.15;47740.13;5013235;28;20213;-83
2022/12/26 10:20:30;;;;;;;32.87;18.93;;;;;;;-141.97;51.14;47749.72;5013771;28;20175;-83
2022/12/26 10:23:08;;;;;;;20.97;10.87;;;;;;;-141.97;51.52;47776.63;4896630;29;20250;-83
2022/12/26 10:26:02;;;;;;;13.77;8.43;;;;;;;-141.97;51.99;47742.03;4895901;29;20238;-84
2022/12/26 10:28:44;;;;;;;16.37;9.87;;;;;;;-141.97;51.64;47724.75;4839735;29;20192;-81
2022/12/26 10:31:17;;;;;;;9.87;5.90;;;;;;;-141.97;50.81;47768.94;4839602;29;20169;-82
2022/12/26 10:33:54;;;;;;;17.33;10.60;;;;;;;-141.97;52.03;47734.34;4840477;29;20296;-81
2022/12/26 10:36:39;;;;;;;58.20;22.93;;;;;;;-141.97;50.87;47795.88;4842257;29;20165;-83
2022/12/26 10:39:16;;;;;;;26.23;11.80;;;;;;;-141.97;51.25;47757.41;4827245;29;20200;-83
2022/12/26 10:41:45;;;;;;;29.43;15.90;;;;;;;-141.97;50.68;47761.25;4844156;29;20219;-83
2022/12/26 10:44:12;;;;;;;35.70;17.30;;;;;;;-141.97;50.46;47742.03;4843597;29;20181;-83
2022/12/26 10:46:56;;;;;;;27.57;13.10;;;;;;;-141.97;49.58;47749.72;4843713;29;20352;-84
2022/12/26 10:49:24;;;;;;;21.30;10.97;;;;;;;-141.97;50.74;47792.03;4844707;29;20165;-83
2022/12/26 10:51:52;;;;;;;19.63;10.60;;;;;;;-141.97;51.93;47742.03;4843827;29;20189;-83
2022/12/26 10:54:19;;;;;;;16.43;9.93;;;;;;;-141.97;51.76;47759.34;4899708;29;20190;-83
2022/12/26 10:56:47;;;;;;;22.33;10.57;;;;;;;-141.97;51.30;47742.03;4917539;29;20293;-84
2022/12/26 10:59:19;;;;;;;15.80;8.73;;;;;;;-141.97;50.82;47734.34;4927393;29;20193;-84
2022/12/26 11:01:48;;;;;;;16.30;9.27;;;;;;;-141.97;50.38;47778.56;4936267;29;20263;-84
2022/12/26 11:04:22;;;;;;;14.63;7.73;;;;;;;-141.97;48.71;47770.88;4939681;28;20166;-84
2022/12/26 11:06:51;;;;;;;13.90;8.30;;;;;;;-141.97;49.42;47772.78;4976946;28;20229;-84
2022/12/26 11:09:41;;;;;;;15.77;8.13;;;;;;;-141.97;49.05;47747.81;4991121;28;20260;-86
2022/12/26 11:12:19;;;;;;;15.30;8.40;;;;;;;-141.97;47.93;47649.78;4976149;28;20215;-83
2022/12/26 11:14:45;;;;;;;16.07;9.50;;;;;;;-141.97;48.27;47715.13;4976349;28;20188;-83
2022/12/26 11:17:23;;;;;;;14.90;9.07;;;;;;;-141.97;47.66;47753.56;4974355;28;20220;-84
2022/12/26 11:19:48;;;;;;;13.17;8.10;;;;;;;-141.97;47.97;47615.19;4990484;28;20175;-84
2022/12/26 11:22:28;;;;;;;13.80;8.50;;;;;;;-141.97;47.20;47763.19;4975520;28;20184;-85
2022/12/26 11:25:09;;;;;;;16.17;9.10;;;;;;;-141.97;46.82;47768.94;4976341;28;20167;-85
2022/12/26 11:27:41;;;;;;;16.30;9.33;;;;;;;-141.97;46.68;47678.63;4999901;28;20154;-84
2022/12/26 11:30:13;;;;;;;18.83;9.90;;;;;;;-141.97;47.16;47749.72;4995543;28;20186;-85
2022/12/26 11:32:42;;;;;;;16.03;10.23;;;;;;;-141.97;47.44;47692.06;4995558;28;20227;-84
2022/12/26 11:35:22;;;;;;;19.10;12.00;;;;;;;-141.97;47.86;47840.06;4996136;28;20152;-84
2022/12/26 11:37:57;;;;;;;19.57;12.20;;;;;;;-141.97;47.01;47717.06;5033999;28;20225;-84
2022/12/26 11:40:28;;;;;;;21.93;12.63;;;;;;;-141.97;46.53;47734.34;5053649;28;20199;-85
2022/12/26 11:42:56;;;;;;;22.33;12.47;;;;;;;-141.97;46.36;47745.88;5053565;28;20197;-86
2022/12/26 11:45:25;;;;;;;24.90;13.70;;;;;;;-141.97;46.39;47740.13;5053415;28;20202;-85
2022/12/26 11:47:55;;;;;;;26.47;15.23;;;;;;;-141.97;47.08;47743.97;5053577;28;20583;-84
2022/12/26 11:50:23;;;;;;;26.57;14.93;;;;;;;-141.97;47.34;47740.13;5072096;28;20260;-83
2022/12/26 11:52:54;;;;;;;25.20;14.93;;;;;;;-141.97;48.12;47743.97;5077623;28;20158;-84
2022/12/26 11:58:22;;;;;;;26.50;15.00;;;;;;;-141.97;48.58;47747.81;5053672;28;20489;-85
2022/12/26 12:00:50;;;;;;;24.47;13.97;;;;;;;-141.97;47.83;47770.88;4972849;28;20698;-86
2022/12/26 12:03:31;;;;;;;20.30;12.10;;;;;;;-141.97;47.73;47755.50;4972256;28;20219;-85
2022/12/26 12:06:05;;;;;;;20.30;12.97;;;;;;;-141.97;47.64;47728.59;4955204;28;20192;-83
2022/12/26 12:08:52;;;;;;;20.67;12.87;;;;;;;-141.97;48.26;47753.56;4953427;29;20248;-87
2022/12/26 12:11:31;;;;;;;21.20;12.10;;;;;;;-141.97;48.64;47749.72;4953336;29;20596;-84
2022/12/26 12:14:11;;;;;;;20.10;11.67;;;;;;;-141.97;49.38;47743.97;4956443;29;20188;-83
2022/12/26 12:17:05;;;;;;;20.20;11.90;;;;;;;-141.97;49.22;47707.44;4955832;29;20846;-83
2022/12/26 12:20:23;;;;;;;26.47;15.90;;;;;;;-141.97;49.57;47742.03;4953555;29;20161;-84
2022/12/26 12:23:04;;;;;;;23.47;12.57;;;;;;;-141.97;49.64;47730.50;4895954;29;20331;-83
2022/12/26 12:25:35;;;;;;;21.50;11.60;;;;;;;-141.97;49.46;47740.13;4895534;29;20273;-84
2022/12/26 12:28:12;;;;;;;18.50;10.80;;;;;;;-141.97;48.90;47726.66;4895377;29;20167;-86
2022/12/26 12:30:48;;;;;;;20.43;12.33;;;;;;;-141.97;48.95;47745.88;4895871;29;20273;-85
2022/12/26 12:33:16;;;;;;;43.37;19.00;;;;;;;-141.97;48.46;47765.09;4895417;29;20193;-84
2022/12/26 12:36:11;;;;;;;20.67;12.13;;;;;;;-141.97;48.32;47753.56;4913582;28;20659;-84
2022/12/26 12:38:45;;;;;;;14.93;9.83;;;;;;;-141.97;48.26;47738.19;4972180;28;20269;-84
2022/12/26 12:41:48;;;;;;;16.20;9.77;;;;;;;-141.97;48.04;47757.41;4974246;28;20241;-83
2022/12/26 12:44:24;;;;;;;13.80;8.03;;;;;;;-141.97;46.84;47730.50;4975838;28;20638;-85
2022/12/26 12:47:17;;;;;;;18.43;10.60;;;;;;;-141.97;47.46;47730.50;4978413;28;20174;-85
2022/12/26 12:50:02;;;;;;;16.03;9.70;;;;;;;-141.97;47.55;47743.97;4978692;28;20526;-85
2022/12/26 12:52:37;;;;;;;14.30;9.33;;;;;;;-141.97;47.34;47717.06;4973274;28;20184;-83
2022/12/26 12:55:39;;;;;;;15.00;9.23;;;;;;;-141.97;47.13;47765.09;4975609;28;20627;-84
2022/12/26 12:58:26;;;;;;;14.57;9.10;;;;;;;-141.97;46.90;47728.59;4995807;28;20233;-85
2022/12/26 13:00:58;;;;;;;16.47;10.97;;;;;;;-141.97;47.05;47740.13;5018375;28;20182;-85
2022/12/26 13:03:57;;;;;;;17.63;10.67;;;;;;;-141.97;46.64;47778.56;5022429;28;20654;-84
2022/12/26 13:06:42;;;;;;;24.27;12.27;;;;;;;-141.97;45.95;47718.97;5032802;28;20174;-85
2022/12/26 13:09:31;;;;;;;17.10;10.37;;;;;;;-141.97;45.97;47740.13;5032502;28;20232;-85
2022/12/26 13:12:04;;;;;;;21.83;11.93;;;;;;;-141.97;45.77;47738.19;5031961;28;20208;-84
2022/12/26 13:14:38;;;;;;;36.83;19.17;;;;;;;-141.97;45.81;47734.34;5014221;28;20170;-85
2022/12/26 13:17:48;;;;;;;22.03;12.30;;;;;;;-141.97;46.53;47711.28;5030222;28;20239;-85
2022/12/26 13:20:31;;;;;;;17.53;10.10;;;;;;;-141.97;46.33;47865.06;4990423;28;20183;-84
2022/12/26 13:26:07;;;;;;;15.53;9.67;;;;;;;-141.97;46.56;47732.44;4990607;28;20229;-83
2022/12/26 13:28:38;;;;;;;14.03;9.07;;;;;;;-141.97;46.13;47724.75;4990885;28;20209;-84
2022/12/26 13:31:04;;;;;;;15.50;8.13;;;;;;;-141.97;46.79;47753.56;4990225;28;20219;-85
2022/12/26 13:33:31;;;;;;;14.37;8.33;;;;;;;-141.97;46.82;47717.06;4990608;28;20691;-83